Time;durP1;ratioP1;P1;durP2;ratioP2;P2;SDS_P1;SDS_P2;PMS_P1;PMS_P2;Temp;Humidity;BMP_temperature;BMP_pressure;BME280_temperature;BME280_humidity;BME280_pressure;Samples;Min_cycle;Max_cycle;Signal;HPM_P1;HPM_P2
2023/07/24 00:00:26;;;;;;;0.10;0.10;;;;;;;;;;5133239;27;20055;-52
2023/07/24 00:02:53;;;;;;;0.10;0.10;;;;;;;;;;5133815;28;20051;-53
2023/07/24 00:05:19;;;;;;;0.10;0.10;;;;;;;;;;5127837;27;20039;-52
2023/07/24 00:07:44;;;;;;;0.10;0.10;;;;;;;;;;5135492;27;20140;-53
2023/07/24 00:10:10;;;;;;;0.10;0.10;;;;;;;;;;5132584;28;20051;-53
2023/07/24 00:12:35;;;;;;;0.10;0.10;;;;;;;;;;5132710;28;20047;-53
2023/07/24 00:15:01;;;;;;;0.10;0.10;;;;;;;;;;5133067;28;20051;-53
2023/07/24 00:17:26;;;;;;;0.10;0.10;;;;;;;;;;5132326;28;20043;-53
2023/07/24 00:19:52;;;;;;;0.10;0.10;;;;;;;;;;5133233;28;20043;-52
2023/07/24 00:22:18;;;;;;;0.10;0.10;;;;;;;;;;5133649;28;20411;-51
2023/07/24 00:24:43;;;;;;;0.10;0.10;;;;;;;;;;5133148;27;20519;-53
2023/07/24 00:27:09;;;;;;;0.10;0.10;;;;;;;;;;5132636;28;20051;-52
2023/07/24 00:29:34;;;;;;;0.10;0.10;;;;;;;;;;5133457;28;20039;-53
2023/07/24 00:32:00;;;;;;;0.10;0.10;;;;;;;;;;5132899;28;20427;-53
2023/07/24 00:34:25;;;;;;;0.10;0.10;;;;;;;;;;5133258;28;20467;-52
2023/07/24 00:36:54;;;;;;;0.10;0.10;;;;;;;;;;5133245;28;20091;-53
2023/07/24 00:39:20;;;;;;;0.10;0.10;;;;;;;;;;5132747;28;20051;-53
2023/07/24 00:41:45;;;;;;;0.10;0.10;;;;;;;;;;5132614;28;20039;-51
2023/07/24 00:44:11;;;;;;;0.10;0.10;;;;;;;;;;5132407;28;20107;-51
2023/07/24 00:46:37;;;;;;;0.10;0.10;;;;;;;;;;5132685;28;20129;-52
2023/07/24 00:49:03;;;;;;;0.10;0.10;;;;;;;;;;5133355;28;20108;-53
2023/07/24 00:51:30;;;;;;;0.10;0.10;;;;;;;;;;5132334;28;20047;-53
2023/07/24 00:53:57;;;;;;;0.10;0.10;;;;;;;;;;5133321;28;20064;-52
2023/07/24 00:56:23;;;;;;;0.10;0.10;;;;;;;;;;5132965;27;20450;-52
2023/07/24 00:58:49;;;;;;;0.10;0.10;;;;;;;;;;5133276;28;20047;-53
2023/07/24 01:01:16;;;;;;;0.10;0.10;;;;;;;;;;5132297;27;20062;-52
2023/07/24 01:03:43;;;;;;;0.10;0.10;;;;;;;;;;5131097;27;20057;-52
2023/07/24 01:06:09;;;;;;;0.10;0.10;;;;;;;;;;5144517;27;20070;-53
2023/07/24 01:08:36;;;;;;;0.10;0.10;;;;;;;;;;5153602;27;20050;-53
2023/07/24 01:11:06;;;;;;;0.10;0.10;;;;;;;;;;5141270;27;20517;-53
2023/07/24 01:13:34;;;;;;;0.10;0.10;;;;;;;;;;5133108;28;20054;-53
2023/07/24 01:16:02;;;;;;;0.10;0.10;;;;;;;;;;5132040;28;20051;-52
2023/07/24 01:18:29;;;;;;;0.10;0.10;;;;;;;;;;5132930;28;20051;-53
2023/07/24 01:20:56;;;;;;;0.10;0.10;;;;;;;;;;5132494;28;20051;-53
2023/07/24 01:23:25;;;;;;;0.10;0.10;;;;;;;;;;5132381;28;20339;-52
2023/07/24 01:25:53;;;;;;;0.10;0.10;;;;;;;;;;5132084;28;20077;-52
2023/07/24 01:28:19;;;;;;;0.10;0.10;;;;;;;;;;5132387;28;20043;-53
2023/07/24 01:30:44;;;;;;;0.10;0.10;;;;;;;;;;5130956;28;20082;-53
2023/07/24 01:33:10;;;;;;;0.10;0.10;;;;;;;;;;5132386;28;20047;-53
2023/07/24 01:35:36;;;;;;;0.10;0.10;;;;;;;;;;5132380;28;20054;-53
2023/07/24 01:38:02;;;;;;;0.10;0.10;;;;;;;;;;5132072;28;20043;-53
2023/07/24 01:40:28;;;;;;;0.10;0.10;;;;;;;;;;5131275;28;20051;-52
2023/07/24 01:42:53;;;;;;;0.10;0.10;;;;;;;;;;5132641;27;20471;-53
2023/07/24 01:45:19;;;;;;;0.10;0.10;;;;;;;;;;5131426;27;20055;-52
2023/07/24 01:47:44;;;;;;;0.10;0.10;;;;;;;;;;5131443;28;20062;-53
2023/07/24 01:50:10;;;;;;;0.10;0.10;;;;;;;;;;5131639;28;20043;-50
2023/07/24 01:52:36;;;;;;;0.10;0.10;;;;;;;;;;5131934;28;20047;-53
2023/07/24 01:55:01;;;;;;;0.10;0.10;;;;;;;;;;5132246;28;20051;-53
2023/07/24 01:57:27;;;;;;;0.10;0.10;;;;;;;;;;5131470;28;20058;-53
2023/07/24 01:59:52;;;;;;;0.10;0.10;;;;;;;;;;5131681;28;20047;-52
2023/07/24 02:02:18;;;;;;;0.10;0.10;;;;;;;;;;5131234;27;20614;-50
2023/07/24 02:04:45;;;;;;;0.10;0.10;;;;;;;;;;5111788;27;20549;-53
2023/07/24 02:07:11;;;;;;;0.20;0.20;;;;;;;;;;5111202;28;20043;-53
2023/07/24 02:09:36;;;;;;;0.13;0.13;;;;;;;;;;5111747;28;20744;-53
2023/07/24 02:12:02;;;;;;;0.10;0.10;;;;;;;;;;5131093;28;20043;-53
2023/07/24 02:14:28;;;;;;;0.10;0.10;;;;;;;;;;5132563;28;20054;-53
2023/07/24 02:16:53;;;;;;;0.10;0.10;;;;;;;;;;5131543;27;20129;-61
2023/07/24 02:19:19;;;;;;;0.10;0.10;;;;;;;;;;5132339;28;20051;-60
2023/07/24 02:21:44;;;;;;;0.10;0.10;;;;;;;;;;5131237;28;20400;-60
2023/07/24 02:24:10;;;;;;;0.10;0.10;;;;;;;;;;5131491;28;20066;-60
2023/07/24 02:26:35;;;;;;;0.10;0.10;;;;;;;;;;5131894;28;20086;-60
2023/07/24 02:29:01;;;;;;;0.10;0.10;;;;;;;;;;5131962;28;20054;-60
2023/07/24 02:31:26;;;;;;;0.10;0.10;;;;;;;;;;5131049;28;20090;-61
2023/07/24 02:33:52;;;;;;;0.10;0.10;;;;;;;;;;5131862;28;20134;-61
2023/07/24 02:36:17;;;;;;;0.10;0.10;;;;;;;;;;5132062;28;20053;-60
2023/07/24 02:38:43;;;;;;;0.10;0.10;;;;;;;;;;5131754;28;20047;-61
2023/07/24 02:41:08;;;;;;;0.10;0.10;;;;;;;;;;5130650;28;20047;-61
2023/07/24 02:43:34;;;;;;;0.10;0.10;;;;;;;;;;5131481;28;20074;-61
2023/07/24 02:46:00;;;;;;;0.10;0.10;;;;;;;;;;5130902;28;20404;-60
2023/07/24 02:48:26;;;;;;;0.10;0.10;;;;;;;;;;5131888;27;20053;-61
2023/07/24 02:50:51;;;;;;;0.10;0.10;;;;;;;;;;5131337;27;20051;-59
2023/07/24 02:53:17;;;;;;;0.10;0.10;;;;;;;;;;5131712;28;20047;-60
2023/07/24 02:55:43;;;;;;;0.10;0.10;;;;;;;;;;5131132;28;20144;-60
2023/07/24 02:58:10;;;;;;;0.10;0.10;;;;;;;;;;5131330;27;20046;-60
2023/07/24 03:00:36;;;;;;;0.10;0.10;;;;;;;;;;5131319;27;20058;-61
2023/07/24 03:03:01;;;;;;;0.10;0.10;;;;;;;;;;5131195;27;20395;-60
2023/07/24 03:05:27;;;;;;;0.10;0.10;;;;;;;;;;5131251;28;20054;-60
2023/07/24 03:07:52;;;;;;;0.10;0.10;;;;;;;;;;5131631;28;20052;-61
2023/07/24 03:10:18;;;;;;;0.10;0.10;;;;;;;;;;5130634;28;20181;-60
2023/07/24 03:12:43;;;;;;;0.10;0.10;;;;;;;;;;5131412;28;20083;-60
2023/07/24 03:15:09;;;;;;;0.10;0.10;;;;;;;;;;5131482;27;20561;-60
2023/07/24 03:17:35;;;;;;;0.10;0.10;;;;;;;;;;5130969;28;20056;-61
2023/07/24 03:20:08;;;;;;;0.10;0.10;;;;;;;;;;5132748;27;21232;-60
2023/07/24 03:22:33;;;;;;;0.10;0.10;;;;;;;;;;5134206;27;20070;-60
2023/07/24 03:24:59;;;;;;;0.10;0.10;;;;;;;;;;5134681;28;20488;-60
2023/07/24 03:27:24;;;;;;;0.10;0.10;;;;;;;;;;5134114;28;20395;-61
2023/07/24 03:29:50;;;;;;;0.13;0.13;;;;;;;;;;5134458;28;20058;-61
2023/07/24 03:32:15;;;;;;;0.10;0.10;;;;;;;;;;5134683;28;20055;-60
2023/07/24 03:34:41;;;;;;;0.10;0.10;;;;;;;;;;5134570;28;20043;-60
2023/07/24 03:37:06;;;;;;;0.10;0.10;;;;;;;;;;5134545;28;20399;-61
2023/07/24 03:39:32;;;;;;;0.10;0.10;;;;;;;;;;5134660;28;20058;-60
2023/07/24 03:41:57;;;;;;;0.10;0.10;;;;;;;;;;5133726;28;20047;-61
2023/07/24 03:44:23;;;;;;;0.10;0.10;;;;;;;;;;5134296;28;20453;-60
2023/07/24 03:46:49;;;;;;;0.10;0.10;;;;;;;;;;5134316;28;20050;-60
2023/07/24 03:49:14;;;;;;;0.10;0.10;;;;;;;;;;5134247;28;20058;-61
2023/07/24 03:51:40;;;;;;;0.10;0.10;;;;;;;;;;5134057;28;20428;-60
2023/07/24 03:54:05;;;;;;;0.10;0.10;;;;;;;;;;5134324;28;20043;-60
2023/07/24 03:56:31;;;;;;;0.10;0.10;;;;;;;;;;5134201;28;20417;-60
2023/07/24 03:58:57;;;;;;;0.10;0.10;;;;;;;;;;5133632;28;20047;-61
2023/07/24 04:01:22;;;;;;;0.10;0.10;;;;;;;;;;5133468;27;20527;-60
2023/07/24 04:03:48;;;;;;;0.10;0.10;;;;;;;;;;5138374;27;20050;-60
2023/07/24 04:06:13;;;;;;;0.10;0.10;;;;;;;;;;5135379;27;20482;-60
2023/07/24 04:08:39;;;;;;;0.10;0.10;;;;;;;;;;5134265;28;20388;-61
2023/07/24 04:11:05;;;;;;;0.10;0.10;;;;;;;;;;5133287;28;20414;-61
2023/07/24 04:13:30;;;;;;;0.10;0.10;;;;;;;;;;5134081;28;20051;-60
2023/07/24 04:15:57;;;;;;;0.10;0.10;;;;;;;;;;5133778;28;20043;-61
2023/07/24 04:18:23;;;;;;;0.10;0.10;;;;;;;;;;5134185;28;20040;-60
2023/07/24 04:20:48;;;;;;;0.10;0.10;;;;;;;;;;5133763;28;20054;-60
2023/07/24 04:23:14;;;;;;;0.10;0.10;;;;;;;;;;5134022;28;20051;-59
2023/07/24 04:25:39;;;;;;;0.10;0.10;;;;;;;;;;5133395;28;20051;-60
2023/07/24 04:28:05;;;;;;;0.10;0.10;;;;;;;;;;5133730;28;20043;-60
2023/07/24 04:30:30;;;;;;;0.10;0.10;;;;;;;;;;5132910;27;20043;-60
2023/07/24 04:32:56;;;;;;;0.10;0.10;;;;;;;;;;5133243;28;20043;-60
2023/07/24 04:35:22;;;;;;;0.10;0.10;;;;;;;;;;5133373;28;20054;-59
2023/07/24 04:37:47;;;;;;;0.10;0.10;;;;;;;;;;5133509;28;20039;-61
2023/07/24 04:40:13;;;;;;;0.10;0.10;;;;;;;;;;5132965;28;20066;-60
2023/07/24 04:42:38;;;;;;;0.10;0.10;;;;;;;;;;5133931;28;20501;-60
2023/07/24 04:45:04;;;;;;;0.10;0.10;;;;;;;;;;5133094;28;20043;-61
2023/07/24 04:47:29;;;;;;;0.10;0.10;;;;;;;;;;5133125;27;20470;-61
2023/07/24 04:49:55;;;;;;;0.10;0.10;;;;;;;;;;5131582;27;20108;-60
2023/07/24 04:52:21;;;;;;;0.10;0.10;;;;;;;;;;5132649;28;20051;-60
2023/07/24 04:54:46;;;;;;;0.10;0.10;;;;;;;;;;5132847;28;20058;-59
2023/07/24 04:57:12;;;;;;;0.10;0.10;;;;;;;;;;5132526;28;20047;-60
2023/07/24 04:59:37;;;;;;;0.10;0.10;;;;;;;;;;5132573;28;20051;-61
2023/07/24 05:02:03;;;;;;;0.10;0.10;;;;;;;;;;5123304;27;20043;-60
2023/07/24 05:04:28;;;;;;;0.10;0.10;;;;;;;;;;5150343;27;20141;-60
2023/07/24 05:06:54;;;;;;;0.10;0.10;;;;;;;;;;5143474;27;20043;-60
2023/07/24 05:09:19;;;;;;;0.10;0.10;;;;;;;;;;5132378;28;20054;-60
2023/07/24 05:11:45;;;;;;;0.10;0.10;;;;;;;;;;5131933;28;20055;-61
2023/07/24 05:14:11;;;;;;;0.10;0.10;;;;;;;;;;5132395;27;20054;-60
2023/07/24 05:16:36;;;;;;;0.10;0.10;;;;;;;;;;5132173;28;20047;-60
2023/07/24 05:19:02;;;;;;;0.10;0.10;;;;;;;;;;5132421;27;20051;-61
2023/07/24 05:21:27;;;;;;;0.10;0.10;;;;;;;;;;5132075;28;20047;-61
2023/07/24 05:23:53;;;;;;;0.10;0.10;;;;;;;;;;5132549;28;20046;-61
2023/07/24 05:26:18;;;;;;;0.10;0.10;;;;;;;;;;5131738;28;20088;-60
2023/07/24 05:28:44;;;;;;;0.10;0.10;;;;;;;;;;5132071;28;20050;-60
2023/07/24 05:31:09;;;;;;;0.10;0.10;;;;;;;;;;5131722;28;20131;-60
2023/07/24 05:33:35;;;;;;;0.10;0.10;;;;;;;;;;5132813;28;20055;-60
2023/07/24 05:36:01;;;;;;;0.10;0.10;;;;;;;;;;5132281;28;20039;-60
2023/07/24 05:38:28;;;;;;;0.10;0.10;;;;;;;;;;5132190;28;20119;-61
2023/07/24 05:40:54;;;;;;;0.10;0.10;;;;;;;;;;5131916;28;20051;-60
2023/07/24 05:43:20;;;;;;;0.10;0.10;;;;;;;;;;5131884;27;20047;-60
2023/07/24 05:45:45;;;;;;;0.10;0.10;;;;;;;;;;5132316;28;20099;-60
2023/07/24 05:48:11;;;;;;;0.10;0.10;;;;;;;;;;5130859;28;20099;-61
2023/07/24 05:50:36;;;;;;;0.10;0.10;;;;;;;;;;5132169;28;20407;-60
2023/07/24 05:53:02;;;;;;;0.10;0.10;;;;;;;;;;5130525;28;20504;-61
2023/07/24 05:55:27;;;;;;;0.10;0.10;;;;;;;;;;5132809;27;20055;-60
2023/07/24 05:57:53;;;;;;;0.10;0.10;;;;;;;;;;5132238;28;20075;-60
2023/07/24 06:00:19;;;;;;;0.10;0.10;;;;;;;;;;5131795;27;20139;-60
2023/07/24 06:02:45;;;;;;;0.10;0.10;;;;;;;;;;5131907;28;20047;-61
2023/07/24 06:05:10;;;;;;;0.10;0.10;;;;;;;;;;5132350;28;20051;-61
2023/07/24 06:07:36;;;;;;;0.10;0.10;;;;;;;;;;5132495;28;20082;-61
2023/07/24 06:10:01;;;;;;;0.10;0.10;;;;;;;;;;5130587;28;20082;-61
2023/07/24 06:12:27;;;;;;;0.10;0.10;;;;;;;;;;5132373;28;20046;-60
2023/07/24 06:14:52;;;;;;;0.10;0.10;;;;;;;;;;5132129;28;20431;-61
2023/07/24 06:17:18;;;;;;;0.10;0.10;;;;;;;;;;5131599;28;20457;-61
2023/07/24 06:19:43;;;;;;;0.10;0.10;;;;;;;;;;5131983;28;20061;-61
2023/07/24 06:22:09;;;;;;;0.20;0.20;;;;;;;;;;5131628;28;20078;-61
2023/07/24 06:24:34;;;;;;;0.10;0.10;;;;;;;;;;5132270;28;20454;-60
2023/07/24 06:27:00;;;;;;;0.10;0.10;;;;;;;;;;5131838;28;20043;-60
2023/07/24 06:29:26;;;;;;;0.10;0.10;;;;;;;;;;5131515;28;20047;-60
2023/07/24 06:31:51;;;;;;;0.10;0.10;;;;;;;;;;5131802;27;20051;-60
2023/07/24 06:34:17;;;;;;;0.10;0.10;;;;;;;;;;5131699;28;20434;-60
2023/07/24 06:36:43;;;;;;;0.10;0.10;;;;;;;;;;5131711;28;20067;-60
2023/07/24 06:39:08;;;;;;;0.10;0.10;;;;;;;;;;5131368;28;20104;-60
2023/07/24 06:41:34;;;;;;;0.10;0.10;;;;;;;;;;5130750;28;20071;-60
2023/07/24 06:43:59;;;;;;;0.10;0.10;;;;;;;;;;5131493;28;20086;-60
2023/07/24 06:46:25;;;;;;;0.20;0.20;;;;;;;;;;5131204;28;20051;-60
2023/07/24 06:48:50;;;;;;;0.10;0.10;;;;;;;;;;5131513;28;20475;-60
2023/07/24 06:51:16;;;;;;;0.10;0.10;;;;;;;;;;5131348;28;20483;-61
2023/07/24 06:53:41;;;;;;;0.10;0.10;;;;;;;;;;5132159;27;20047;-61
2023/07/24 06:56:07;;;;;;;0.10;0.10;;;;;;;;;;5135443;28;20479;-60
2023/07/24 06:58:32;;;;;;;0.10;0.10;;;;;;;;;;5135069;27;20438;-59
2023/07/24 07:00:58;;;;;;;0.20;0.20;;;;;;;;;;5136197;27;20078;-60
2023/07/24 07:03:23;;;;;;;0.10;0.10;;;;;;;;;;5155358;27;20077;-62
2023/07/24 07:05:49;;;;;;;0.10;0.10;;;;;;;;;;5155601;27;20061;-61
2023/07/24 07:08:15;;;;;;;0.10;0.10;;;;;;;;;;5155460;27;20046;-60
2023/07/24 07:10:40;;;;;;;0.10;0.10;;;;;;;;;;5141538;27;20054;-60
2023/07/24 07:13:06;;;;;;;0.10;0.10;;;;;;;;;;5134613;28;20047;-60
2023/07/24 07:15:31;;;;;;;0.10;0.10;;;;;;;;;;5133595;28;20050;-61
2023/07/24 07:17:57;;;;;;;0.10;0.10;;;;;;;;;;5134294;28;20134;-60
2023/07/24 07:20:22;;;;;;;0.10;0.10;;;;;;;;;;5134141;28;20366;-60
2023/07/24 07:22:48;;;;;;;0.10;0.10;;;;;;;;;;5134385;27;20043;-60
2023/07/24 07:25:13;;;;;;;0.10;0.10;;;;;;;;;;5134792;28;20054;-60
2023/07/24 07:27:39;;;;;;;0.45;0.45;;;;;;;;;;5134487;28;20125;-60
2023/07/24 07:30:05;;;;;;;0.10;0.10;;;;;;;;;;5133464;28;20050;-60
2023/07/24 07:32:30;;;;;;;0.10;0.10;;;;;;;;;;5134406;28;20399;-60
2023/07/24 07:34:56;;;;;;;0.10;0.10;;;;;;;;;;5133900;28;20039;-60
2023/07/24 07:37:21;;;;;;;0.10;0.10;;;;;;;;;;5134235;28;20082;-61
2023/07/24 07:39:47;;;;;;;0.10;0.10;;;;;;;;;;5133324;28;20051;-60
2023/07/24 07:42:12;;;;;;;0.10;0.10;;;;;;;;;;5133348;28;20047;-61
2023/07/24 07:44:44;;;;;;;0.10;0.10;;;;;;;;;;5134387;28;20154;-61
2023/07/24 07:47:10;;;;;;;0.10;0.10;;;;;;;;;;5132971;27;20051;-61
2023/07/24 07:49:36;;;;;;;0.10;0.10;;;;;;;;;;5133870;28;20414;-61
2023/07/24 07:52:01;;;;;;;0.10;0.10;;;;;;;;;;5133391;28;20158;-60
2023/07/24 07:54:27;;;;;;;0.10;0.10;;;;;;;;;;5133600;28;20100;-60
2023/07/24 07:56:53;;;;;;;0.10;0.10;;;;;;;;;;5133818;28;20270;-60
2023/07/24 07:59:18;;;;;;;0.10;0.10;;;;;;;;;;5134012;28;20111;-59
2023/07/24 08:01:45;;;;;;;0.10;0.10;;;;;;;;;;5142194;27;20119;-60
2023/07/24 08:04:11;;;;;;;0.10;0.10;;;;;;;;;;5154473;27;20043;-60
2023/07/24 08:06:36;;;;;;;0.10;0.10;;;;;;;;;;5135108;27;20405;-60
2023/07/24 08:09:02;;;;;;;0.10;0.10;;;;;;;;;;5146640;27;20092;-61
2023/07/24 08:11:27;;;;;;;0.10;0.10;;;;;;;;;;5132512;28;20561;-61
2023/07/24 08:13:53;;;;;;;0.10;0.10;;;;;;;;;;5133797;28;20051;-61
2023/07/24 08:16:19;;;;;;;0.10;0.10;;;;;;;;;;5132876;28;20046;-60
2023/07/24 08:18:46;;;;;;;0.10;0.10;;;;;;;;;;5133381;28;20099;-60
2023/07/24 08:21:13;;;;;;;0.10;0.10;;;;;;;;;;5133030;27;20483;-60
2023/07/24 08:23:39;;;;;;;0.15;0.15;;;;;;;;;;5134000;28;20047;-60
2023/07/24 08:26:05;;;;;;;0.20;0.20;;;;;;;;;;5134089;28;20380;-61
2023/07/24 08:28:30;;;;;;;0.10;0.10;;;;;;;;;;5133540;28;20070;-60
2023/07/24 08:30:57;;;;;;;0.10;0.10;;;;;;;;;;5123088;28;20498;-60
2023/07/24 08:33:23;;;;;;;0.10;0.10;;;;;;;;;;5133959;28;20433;-60
2023/07/24 08:35:58;;;;;;;0.10;0.10;;;;;;;;;;5133655;28;20059;-61
2023/07/24 08:38:24;;;;;;;0.10;0.10;;;;;;;;;;5133374;28;20395;-60
2023/07/24 08:40:59;;;;;;;0.10;0.10;;;;;;;;;;5132481;28;20043;-60
2023/07/24 08:43:25;;;;;;;0.10;0.10;;;;;;;;;;5133540;27;20047;-60
2023/07/24 08:45:50;;;;;;;0.10;0.10;;;;;;;;;;5133359;28;20512;-60
2023/07/24 08:48:16;;;;;;;0.10;0.10;;;;;;;;;;5133601;28;20107;-60
2023/07/24 08:50:42;;;;;;;0.10;0.10;;;;;;;;;;5133276;27;20047;-60
2023/07/24 08:53:08;;;;;;;0.10;0.10;;;;;;;;;;5132812;28;20054;-61
2023/07/24 08:55:34;;;;;;;0.10;0.10;;;;;;;;;;5133700;27;20134;-60
2023/07/24 08:57:59;;;;;;;0.10;0.10;;;;;;;;;;5132898;27;20072;-60
2023/07/24 09:00:27;;;;;;;0.10;0.10;;;;;;;;;;5124392;27;20500;-60
2023/07/24 09:02:53;;;;;;;0.10;0.10;;;;;;;;;;5154148;27;20047;-60
2023/07/24 09:05:18;;;;;;;0.10;0.10;;;;;;;;;;5154098;27;20050;-60
2023/07/24 09:07:45;;;;;;;0.10;0.10;;;;;;;;;;5154093;27;20042;-60
2023/07/24 09:10:11;;;;;;;0.10;0.10;;;;;;;;;;5149128;27;20183;-60
2023/07/24 09:12:38;;;;;;;0.10;0.10;;;;;;;;;;5133474;28;20080;-61
2023/07/24 09:15:04;;;;;;;0.10;0.10;;;;;;;;;;5133041;28;20051;-60
2023/07/24 09:17:32;;;;;;;0.10;0.10;;;;;;;;;;5131597;27;20047;-60
2023/07/24 09:19:58;;;;;;;0.10;0.10;;;;;;;;;;5132798;28;20096;-61
2023/07/24 09:22:26;;;;;;;0.10;0.10;;;;;;;;;;5133079;28;20054;-60
2023/07/24 09:24:52;;;;;;;;;;;;;;;;;;5133025;28;20478;-60
2023/07/24 09:27:18;;;;;;;0.10;0.10;;;;;;;;;;5132917;28;19925;-60
2023/07/24 09:29:43;;;;;;;0.10;0.10;;;;;;;;;;5132314;28;20055;-60
2023/07/24 09:32:25;;;;;;;0.10;0.10;;;;;;;;;;5132246;27;20047;-60
2023/07/24 09:34:51;;;;;;;0.10;0.10;;;;;;;;;;5132466;27;20058;-61
2023/07/24 09:37:25;;;;;;;0.10;0.10;;;;;;;;;;5132536;27;20078;-61
2023/07/24 09:39:50;;;;;;;0.10;0.10;;;;;;;;;;5132570;27;20043;-61
2023/07/24 09:42:16;;;;;;;0.20;0.20;;;;;;;;;;5131842;28;20047;-60
2023/07/24 09:44:41;;;;;;;0.10;0.10;;;;;;;;;;5132614;28;20054;-60
2023/07/24 09:47:07;;;;;;;0.10;0.10;;;;;;;;;;5132578;28;20514;-61
2023/07/24 09:49:53;;;;;;;0.10;0.10;;;;;;;;;;5116987;28;20111;-60
2023/07/24 09:52:19;;;;;;;0.10;0.10;;;;;;;;;;5132421;28;20104;-60
2023/07/24 09:55:04;;;;;;;0.10;0.10;;;;;;;;;;5132035;28;20080;-60
2023/07/24 09:57:30;;;;;;;0.10;0.10;;;;;;;;;;5131030;28;20072;-60
2023/07/24 09:59:56;;;;;;;0.10;0.10;;;;;;;;;;5131124;27;20047;-61
2023/07/24 10:02:22;;;;;;;0.10;0.10;;;;;;;;;;5148832;27;20421;-60
2023/07/24 10:04:49;;;;;;;0.10;0.10;;;;;;;;;;5153348;27;20281;-60
2023/07/24 10:07:15;;;;;;;0.10;0.10;;;;;;;;;;5153330;27;20479;-60
2023/07/24 10:09:42;;;;;;;0.10;0.10;;;;;;;;;;5153163;27;20102;-61
2023/07/24 10:12:08;;;;;;;0.10;0.10;;;;;;;;;;5131532;28;20544;-60
2023/07/24 10:14:35;;;;;;;0.10;0.10;;;;;;;;;;5132152;28;20047;-60
2023/07/24 10:17:01;;;;;;;0.10;0.10;;;;;;;;;;5131590;28;20066;-60
2023/07/24 10:19:35;;;;;;;0.10;0.10;;;;;;;;;;5132349;28;20403;-60
2023/07/24 10:22:03;;;;;;;0.10;0.10;;;;;;;;;;5131752;28;20039;-61
2023/07/24 10:24:29;;;;;;;0.10;0.10;;;;;;;;;;5132294;27;20055;-60
2023/07/24 10:27:07;;;;;;;0.10;0.10;;;;;;;;;;5131719;28;20051;-61
2023/07/24 10:29:34;;;;;;;0.10;0.10;;;;;;;;;;5131710;27;20130;-61
2023/07/24 10:32:00;;;;;;;0.10;0.10;;;;;;;;;;5130891;28;20047;-60
2023/07/24 10:34:35;;;;;;;0.10;0.10;;;;;;;;;;5131640;28;20460;-60
2023/07/24 10:37:03;;;;;;;0.10;0.10;;;;;;;;;;5131633;28;20518;-60
2023/07/24 10:39:37;;;;;;;0.10;0.10;;;;;;;;;;5111092;28;20051;-60
2023/07/24 10:42:10;;;;;;;0.10;0.10;;;;;;;;;;5110344;28;20059;-60
2023/07/24 10:44:36;;;;;;;0.10;0.10;;;;;;;;;;5111053;28;20039;-61
2023/07/24 10:47:02;;;;;;;0.10;0.10;;;;;;;;;;5111037;28;20052;-60
2023/07/24 10:49:28;;;;;;;0.10;0.10;;;;;;;;;;5111475;28;20146;-60
2023/07/24 10:51:57;;;;;;;0.20;0.20;;;;;;;;;;5110841;28;20043;-61
2023/07/24 10:54:23;;;;;;;0.10;0.10;;;;;;;;;;5111372;28;20101;-60
2023/07/24 10:56:48;;;;;;;0.10;0.10;;;;;;;;;;5110747;28;20437;-60
2023/07/24 10:59:17;;;;;;;0.10;0.10;;;;;;;;;;5110684;28;20043;-58
2023/07/24 11:01:43;;;;;;;0.10;0.10;;;;;;;;;;5110001;28;20052;-60
2023/07/24 11:04:09;;;;;;;0.10;0.10;;;;;;;;;;5110738;28;20044;-60
2023/07/24 11:06:35;;;;;;;0.10;0.10;;;;;;;;;;5110345;28;20044;-61
2023/07/24 11:09:01;;;;;;;0.10;0.10;;;;;;;;;;5110500;28;20056;-61
2023/07/24 11:11:34;;;;;;;0.10;0.10;;;;;;;;;;5109748;28;20048;-61
2023/07/24 11:14:01;;;;;;;0.10;0.10;;;;;;;;;;5110146;28;20509;-61
2023/07/24 11:16:27;;;;;;;0.10;0.10;;;;;;;;;;5110038;28;20047;-61
2023/07/24 11:18:53;;;;;;;0.17;0.17;;;;;;;;;;5110372;28;20486;-60
2023/07/24 11:21:22;;;;;;;0.10;0.10;;;;;;;;;;5110199;28;20084;-61
2023/07/24 11:23:48;;;;;;;0.10;0.10;;;;;;;;;;5110575;28;20406;-61
2023/07/24 11:26:13;;;;;;;0.22;0.22;;;;;;;;;;5110391;28;20111;-60
2023/07/24 11:28:40;;;;;;;0.10;0.10;;;;;;;;;;5109670;28;20450;-59
2023/07/24 11:31:05;;;;;;;0.10;0.10;;;;;;;;;;5109840;28;20044;-60
2023/07/24 11:33:31;;;;;;;0.10;0.10;;;;;;;;;;5109979;28;20397;-60
2023/07/24 11:35:57;;;;;;;0.10;0.10;;;;;;;;;;5109274;28;20056;-61
2023/07/24 11:38:23;;;;;;;0.10;0.10;;;;;;;;;;5109935;28;20381;-60
2023/07/24 11:40:49;;;;;;;0.10;0.10;;;;;;;;;;5110044;28;20400;-60
2023/07/24 11:43:16;;;;;;;0.10;0.10;;;;;;;;;;5113721;28;20043;-61
2023/07/24 11:45:42;;;;;;;0.10;0.10;;;;;;;;;;5113292;28;20043;-61
2023/07/24 11:48:11;;;;;;;0.10;0.10;;;;;;;;;;5113256;28;20395;-60
2023/07/24 11:50:41;;;;;;;0.10;0.10;;;;;;;;;;5113612;28;20499;-60
2023/07/24 11:53:07;;;;;;;0.10;0.10;;;;;;;;;;5113652;28;20098;-61
2023/07/24 11:55:32;;;;;;;0.10;0.10;;;;;;;;;;5114173;28;20043;-61
2023/07/24 11:58:00;;;;;;;0.10;0.10;;;;;;;;;;5112818;28;20506;-60
2023/07/24 12:00:26;;;;;;;0.10;0.10;;;;;;;;;;5113372;28;20048;-61
2023/07/24 12:02:51;;;;;;;0.10;0.10;;;;;;;;;;5112909;28;20048;-60
2023/07/24 12:05:17;;;;;;;0.10;0.10;;;;;;;;;;5113831;28;20377;-60
2023/07/24 12:07:44;;;;;;;0.10;0.10;;;;;;;;;;5113381;28;20055;-61
2023/07/24 12:10:11;;;;;;;0.10;0.10;;;;;;;;;;5112877;28;20048;-60
2023/07/24 12:12:38;;;;;;;0.10;0.10;;;;;;;;;;5113712;28;20550;-60
2023/07/24 12:15:04;;;;;;;0.10;0.10;;;;;;;;;;5113601;28;20071;-61
2023/07/24 12:17:30;;;;;;;0.10;0.10;;;;;;;;;;5112655;28;20423;-61
2023/07/24 12:19:55;;;;;;;0.10;0.10;;;;;;;;;;5113247;28;20407;-61
2023/07/24 12:22:22;;;;;;;0.10;0.10;;;;;;;;;;5112939;28;20488;-61
2023/07/24 12:24:47;;;;;;;0.10;0.10;;;;;;;;;;5113678;28;20062;-60
2023/07/24 12:27:13;;;;;;;0.10;0.10;;;;;;;;;;5113453;28;20048;-60
2023/07/24 12:29:38;;;;;;;0.10;0.10;;;;;;;;;;5113240;28;20055;-60
2023/07/24 12:32:04;;;;;;;0.10;0.10;;;;;;;;;;5113010;28;20043;-60
2023/07/24 12:34:30;;;;;;;0.10;0.10;;;;;;;;;;5113281;28;20070;-60
2023/07/24 12:36:55;;;;;;;0.10;0.10;;;;;;;;;;5112509;28;20074;-60
2023/07/24 12:39:21;;;;;;;0.10;0.10;;;;;;;;;;5112549;28;20127;-61
2023/07/24 12:41:46;;;;;;;0.10;0.10;;;;;;;;;;5111459;28;20048;-61
2023/07/24 12:44:12;;;;;;;0.10;0.10;;;;;;;;;;5113200;28;20052;-60
2023/07/24 12:46:37;;;;;;;0.10;0.10;;;;;;;;;;5112722;28;20043;-61
2023/07/24 12:49:03;;;;;;;0.10;0.10;;;;;;;;;;5112749;28;20048;-60
2023/07/24 12:51:28;;;;;;;0.10;0.10;;;;;;;;;;5112361;28;20051;-60
2023/07/24 12:53:54;;;;;;;0.10;0.10;;;;;;;;;;5113161;28;20043;-60
2023/07/24 12:56:40;;;;;;;0.10;0.10;;;;;;;;;;5097366;28;20108;-60
2023/07/24 12:59:06;;;;;;;0.10;0.10;;;;;;;;;;5112043;28;20044;-60
2023/07/24 13:01:31;;;;;;;0.10;0.10;;;;;;;;;;5112368;28;20048;-60
2023/07/24 13:03:57;;;;;;;0.10;0.10;;;;;;;;;;5112211;28;20048;-60
2023/07/24 13:06:24;;;;;;;0.10;0.10;;;;;;;;;;5112553;28;20092;-60
2023/07/24 13:08:49;;;;;;;0.10;0.10;;;;;;;;;;5112939;28;20101;-60
2023/07/24 13:11:15;;;;;;;0.10;0.10;;;;;;;;;;5111919;28;20055;-60
2023/07/24 13:13:40;;;;;;;0.10;0.10;;;;;;;;;;5111862;28;20058;-60
2023/07/24 13:16:06;;;;;;;0.10;0.10;;;;;;;;;;5111761;28;20039;-60
2023/07/24 13:18:31;;;;;;;0.10;0.10;;;;;;;;;;5111684;28;20052;-60
2023/07/24 13:20:57;;;;;;;0.10;0.10;;;;;;;;;;5111971;28;20408;-60
2023/07/24 13:23:22;;;;;;;0.10;0.10;;;;;;;;;;5111990;28;20096;-59
2023/07/24 13:25:48;;;;;;;0.10;0.10;;;;;;;;;;5111910;28;20087;-60
2023/07/24 13:28:13;;;;;;;0.10;0.10;;;;;;;;;;5111956;28;20051;-60
2023/07/24 13:30:39;;;;;;;0.10;0.10;;;;;;;;;;5111551;28;20348;-60
2023/07/24 13:33:05;;;;;;;0.10;0.10;;;;;;;;;;5111729;28;20044;-60
2023/07/24 13:35:30;;;;;;;0.10;0.10;;;;;;;;;;5112022;28;20070;-60
2023/07/24 13:37:56;;;;;;;0.30;0.30;;;;;;;;;;5111011;28;20063;-60
2023/07/24 13:40:21;;;;;;;0.10;0.10;;;;;;;;;;5110446;28;20507;-60
2023/07/24 13:42:47;;;;;;;0.10;0.10;;;;;;;;;;5111595;28;20067;-60
2023/07/24 13:45:12;;;;;;;0.10;0.10;;;;;;;;;;5111941;28;20052;-60
2023/07/24 13:47:38;;;;;;;0.10;0.10;;;;;;;;;;5111066;28;20511;-60
2023/07/24 13:50:03;;;;;;;0.10;0.10;;;;;;;;;;5110524;28;20100;-60
2023/07/24 13:52:29;;;;;;;0.10;0.10;;;;;;;;;;5110767;28;20043;-60
2023/07/24 13:54:55;;;;;;;0.10;0.10;;;;;;;;;;5111745;28;20051;-59
2023/07/24 13:57:21;;;;;;;0.10;0.10;;;;;;;;;;5103336;27;20468;-60
2023/07/24 13:59:47;;;;;;;0.10;0.10;;;;;;;;;;5091891;28;20089;-60
2023/07/24 14:02:12;;;;;;;0.10;0.10;;;;;;;;;;5111240;28;20051;-60
2023/07/24 14:04:38;;;;;;;0.10;0.10;;;;;;;;;;5110565;28;20506;-60
2023/07/24 14:07:04;;;;;;;0.10;0.10;;;;;;;;;;5111365;28;20051;-60
2023/07/24 14:09:30;;;;;;;0.10;0.10;;;;;;;;;;5111714;28;20052;-60
2023/07/24 14:11:56;;;;;;;0.10;0.10;;;;;;;;;;5111133;28;20249;-60
2023/07/24 14:14:23;;;;;;;0.10;0.10;;;;;;;;;;5111770;28;20082;-60
2023/07/24 14:16:49;;;;;;;0.10;0.10;;;;;;;;;;5110909;28;20442;-61
2023/07/24 14:19:15;;;;;;;0.10;0.10;;;;;;;;;;5111068;28;20499;-60
2023/07/24 14:21:40;;;;;;;0.10;0.10;;;;;;;;;;5111601;28;20043;-60
2023/07/24 14:24:06;;;;;;;0.10;0.10;;;;;;;;;;5111671;28;20048;-60
2023/07/24 14:26:31;;;;;;;0.10;0.10;;;;;;;;;;5111089;28;20054;-60
2023/07/24 14:28:57;;;;;;;0.10;0.10;;;;;;;;;;5111454;28;20052;-60
2023/07/24 14:31:23;;;;;;;0.10;0.10;;;;;;;;;;5111038;28;20108;-60
2023/07/24 14:33:48;;;;;;;0.20;0.20;;;;;;;;;;5111614;28;20044;-60
2023/07/24 14:36:14;;;;;;;0.10;0.10;;;;;;;;;;5111443;28;20044;-60